Time;durP1;ratioP1;P1;durP2;ratioP2;P2;SDS_P1;SDS_P2;PMS_P1;PMS_P2;Temp;Humidity;BMP_temperature;BMP_pressure;BME280_temperature;BME280_humidity;BME280_pressure;Samples;Min_cycle;Max_cycle;Signal;HPM_P1;HPM_P2
2023/01/31 00:00:19;;;;;;;18.37;4.10;;;;;;;3.36;100.00;101631.28;697411;28;4322;-63
2023/01/31 00:00:39;;;;;;;20.45;4.18;;;;;;;3.39;100.00;101632.28;697564;28;964;-62
2023/01/31 00:01:15;;;;;;;18.47;3.70;;;;;;;3.32;100.00;101631.97;696328;28;1083;-61
2023/01/31 00:01:38;;;;;;;17.45;3.70;;;;;;;3.38;100.00;101633.09;695038;28;1150;-62
2023/01/31 00:01:58;;;;;;;17.75;3.70;;;;;;;3.37;100.00;101633.03;694161;28;1076;-62
2023/01/31 00:02:18;;;;;;;16.27;3.70;;;;;;;3.32;100.00;101640.59;693041;28;1041;-61
2023/01/31 00:02:39;;;;;;;15.52;3.88;;;;;;;3.29;100.00;101643.06;693173;28;976;-62
2023/01/31 00:02:59;;;;;;;15.63;4.00;;;;;;;3.31;100.00;101637.94;691793;28;1297;-61
2023/01/31 00:03:19;;;;;;;18.30;4.03;;;;;;;3.34;100.00;101636.38;691476;28;4299;-62
2023/01/31 00:03:42;;;;;;;18.83;3.90;;;;;;;3.35;100.00;101639.84;695237;28;915;-61
2023/01/31 00:04:06;;;;;;;15.55;3.47;;;;;;;3.31;100.00;101645.69;695268;28;1080;-60
2023/01/31 00:04:26;;;;;;;15.50;3.88;;;;;;;3.26;100.00;101647.25;697172;28;881;-61
2023/01/31 00:04:48;;;;;;;16.23;3.90;;;;;;;3.22;100.00;101646.22;695100;28;1302;-63
2023/01/31 00:05:08;;;;;;;15.43;4.28;;;;;;;3.18;100.00;101641.75;695233;28;1361;-62
2023/01/31 00:05:28;;;;;;;15.10;3.83;;;;;;;3.17;100.00;101647.72;695666;28;841;-62
2023/01/31 00:05:49;;;;;;;15.80;3.75;;;;;;;3.16;100.00;101643.41;693561;28;2038;-63
2023/01/31 00:06:19;;;;;;;16.93;3.87;;;;;;;3.18;100.00;101647.78;692144;28;4701;-61
2023/01/31 00:06:42;;;;;;;15.90;3.85;;;;;;;3.22;100.00;101646.22;693421;28;1150;-61
2023/01/31 00:07:03;;;;;;;18.08;3.72;;;;;;;3.27;100.00;101647.28;694421;28;1098;-60
2023/01/31 00:07:23;;;;;;;14.33;3.13;;;;;;;3.39;100.00;101646.88;694401;28;872;-61
2023/01/31 00:07:44;;;;;;;12.38;3.03;;;;;;;3.41;100.00;101650.44;694274;28;758;-61
2023/01/31 00:08:04;;;;;;;13.17;3.37;;;;;;;3.32;100.00;101650.94;693886;28;1381;-62
2023/01/31 00:08:25;;;;;;;13.85;3.55;;;;;;;3.28;100.00;101650.75;694746;28;1360;-61
2023/01/31 00:08:47;;;;;;;16.30;3.80;;;;;;;3.27;100.00;101651.56;694566;28;848;-62
2023/01/31 00:09:09;;;;;;;13.73;3.50;;;;;;;3.38;100.00;101643.44;692950;28;4450;-61
2023/01/31 00:09:30;;;;;;;15.30;3.50;;;;;;;3.36;100.00;101652.81;695189;28;940;-62
2023/01/31 00:09:50;;;;;;;16.35;3.70;;;;;;;3.33;100.00;101647.53;693786;28;1002;-61
2023/01/31 00:10:10;;;;;;;16.07;3.67;;;;;;;3.32;100.00;101650.94;693696;28;1609;-61
2023/01/31 00:10:31;;;;;;;17.35;3.70;;;;;;;3.30;100.00;101644.81;693589;28;1162;-62
2023/01/31 00:10:51;;;;;;;18.07;3.93;;;;;;;3.32;100.00;101645.75;691535;28;959;-61
2023/01/31 00:11:13;;;;;;;15.10;4.17;;;;;;;3.35;100.00;101647.59;690242;28;1173;-61
2023/01/31 00:11:34;;;;;;;17.10;4.18;;;;;;;3.41;100.00;101647.84;691526;28;999;-61
2023/01/31 00:11:55;;;;;;;15.50;4.05;;;;;;;3.39;100.00;101646.88;690510;28;988;-64
2023/01/31 00:12:15;;;;;;;17.77;3.73;;;;;;;3.33;100.00;101642.34;687585;28;4358;-62
2023/01/31 00:12:35;;;;;;;20.73;3.70;;;;;;;3.29;100.00;101640.47;688004;28;790;-62
2023/01/31 00:12:56;;;;;;;14.60;3.70;;;;;;;3.35;100.00;101647.59;692891;28;1028;-62
2023/01/31 00:13:17;;;;;;;15.13;3.67;;;;;;;3.35;100.00;101645.00;695437;28;916;-62
2023/01/31 00:13:37;;;;;;;13.90;3.35;;;;;;;3.33;100.00;101646.66;695570;28;1326;-62
2023/01/31 00:13:59;;;;;;;16.80;3.60;;;;;;;3.25;100.00;101643.75;694815;28;936;-62
2023/01/31 00:14:19;;;;;;;18.63;3.88;;;;;;;3.39;100.00;101636.56;696622;28;983;-61
2023/01/31 00:14:40;;;;;;;16.97;4.23;;;;;;;3.35;100.00;101645.00;696773;28;1169;-62
2023/01/31 00:15:00;;;;;;;15.43;3.27;;;;;;;3.29;100.00;101644.78;696726;28;906;-62
2023/01/31 00:15:21;;;;;;;16.77;4.03;;;;;;;3.25;100.00;101646.34;696036;28;4317;-62
2023/01/31 00:15:41;;;;;;;14.10;4.45;;;;;;;3.24;100.00;101642.88;693471;28;1124;-61
2023/01/31 00:16:02;;;;;;;19.07;4.00;;;;;;;3.20;100.00;101641.00;694640;28;1081;-61
2023/01/31 00:16:23;;;;;;;14.00;3.42;;;;;;;3.31;100.00;101648.28;693089;28;875;-63
2023/01/31 00:16:44;;;;;;;15.13;3.63;;;;;;;3.33;100.00;101644.94;693572;28;857;-60
2023/01/31 00:17:04;;;;;;;16.23;3.60;;;;;;;3.30;100.00;101646.53;694184;28;1184;-62
2023/01/31 00:17:24;;;;;;;15.93;3.70;;;;;;;3.29;100.00;101643.06;694171;28;962;-62
2023/01/31 00:17:45;;;;;;;14.33;3.73;;;;;;;3.28;100.00;101649.06;693986;28;931;-63
2023/01/31 00:18:05;;;;;;;19.07;3.90;;;;;;;3.26;100.00;101649.81;692235;28;4532;-62
2023/01/31 00:18:26;;;;;;;17.92;3.78;;;;;;;3.23;100.00;101653.16;694963;28;1035;-61
2023/01/31 00:18:47;;;;;;;17.33;3.67;;;;;;;3.21;100.00;101649.59;695322;28;1423;-63
2023/01/31 00:19:07;;;;;;;18.58;3.90;;;;;;;3.21;100.00;101650.50;694981;28;1042;-63
2023/01/31 00:19:28;;;;;;;16.63;3.83;;;;;;;3.19;100.00;101646.97;695293;28;912;-62
2023/01/31 00:19:48;;;;;;;16.48;3.70;;;;;;;3.19;100.00;101651.25;695417;28;781;-61
2023/01/31 00:20:10;;;;;;;16.90;3.50;;;;;;;3.31;100.00;101641.44;694244;28;1465;-63
2023/01/31 00:20:31;;;;;;;15.10;3.47;;;;;;;3.28;100.00;101643.91;692593;28;928;-64
2023/01/31 00:20:51;;;;;;;12.48;3.65;;;;;;;3.26;100.00;101648.09;693690;28;1340;-62
2023/01/31 00:21:14;;;;;;;14.10;3.50;;;;;;;3.28;100.00;101654.22;692290;28;5257;-62
2023/01/31 00:21:35;;;;;;;16.50;3.83;;;;;;;3.24;100.00;101652.34;694196;28;827;-62
2023/01/31 00:21:56;;;;;;;15.07;3.67;;;;;;;3.22;100.00;101646.22;695788;28;1033;-63
2023/01/31 00:22:16;;;;;;;13.30;3.30;;;;;;;3.20;100.00;101651.31;693531;28;1031;-61
2023/01/31 00:22:37;;;;;;;15.53;3.43;;;;;;;3.19;100.00;101648.69;692828;28;924;-63
2023/01/31 00:22:57;;;;;;;16.27;3.57;;;;;;;3.17;100.00;101645.13;693330;28;1021;-62
2023/01/31 00:23:18;;;;;;;18.42;3.47;;;;;;;3.33;100.00;101649.25;694064;28;1406;-62
2023/01/31 00:23:39;;;;;;;15.60;3.25;;;;;;;3.32;100.00;101648.34;694212;28;915;-62
2023/01/31 00:24:00;;;;;;;14.48;3.70;;;;;;;3.28;100.00;101654.22;694128;28;1043;-61
2023/01/31 00:24:21;;;;;;;16.02;3.58;;;;;;;3.24;100.00;101648.03;691233;28;5275;-61
2023/01/31 00:24:41;;;;;;;16.90;3.65;;;;;;;3.21;100.00;101650.50;690517;28;868;-61
2023/01/31 00:25:02;;;;;;;18.13;3.60;;;;;;;3.24;100.00;101647.19;688455;28;1004;-61
2023/01/31 00:25:22;;;;;;;15.80;3.70;;;;;;;3.26;100.00;101647.25;688504;28;837;-61
2023/01/31 00:25:43;;;;;;;14.02;3.85;;;;;;;3.23;100.00;101651.44;689863;28;871;-61
2023/01/31 00:26:10;;;;;;;15.03;4.00;;;;;;;3.26;100.00;101645.53;689772;28;1063;-62
2023/01/31 00:26:33;;;;;;;16.75;3.78;;;;;;;3.28;100.00;101643.91;692848;28;1018;-63
2023/01/31 00:26:55;;;;;;;20.77;3.88;;;;;;;3.26;100.00;101650.69;695138;28;1124;-61
2023/01/31 00:27:15;;;;;;;15.57;3.80;;;;;;;3.24;100.00;101648.03;697182;28;4644;-62
2023/01/31 00:27:36;;;;;;;14.67;3.33;;;;;;;3.22;100.00;101649.66;697650;28;1285;-61
2023/01/31 00:27:57;;;;;;;16.00;3.67;;;;;;;3.24;100.00;101647.19;696983;28;900;-62
2023/01/31 00:28:17;;;;;;;15.50;3.97;;;;;;;3.32;100.00;101650.06;697357;28;1512;-61
2023/01/31 00:28:38;;;;;;;17.80;3.97;;;;;;;3.33;100.00;101647.53;693523;28;821;-62
2023/01/31 00:29:01;;;;;;;19.08;3.80;;;;;;;3.33;100.00;101649.25;690407;28;1836;-62
2023/01/31 00:29:23;;;;;;;16.92;3.38;;;;;;;3.34;100.00;101649.31;687520;28;5463;-61
2023/01/31 00:29:43;;;;;;;15.98;3.90;;;;;;;3.31;100.00;101650.88;683888;28;1392;-63
2023/01/31 00:30:04;;;;;;;14.30;3.73;;;;;;;3.31;100.00;101648.28;683162;28;1070;-61
2023/01/31 00:30:25;;;;;;;13.85;3.78;;;;;;;3.32;100.00;101650.06;684842;28;6095;-63
2023/01/31 00:30:47;;;;;;;14.48;3.60;;;;;;;3.40;100.00;101652.13;687476;28;895;-62
2023/01/31 00:31:09;;;;;;;15.48;3.42;;;;;;;3.37;100.00;101651.13;686575;28;1264;-61
2023/01/31 00:31:31;;;;;;;15.68;3.50;;;;;;;3.39;100.00;101645.22;688587;28;885;-63
2023/01/31 00:31:52;;;;;;;15.00;3.40;;;;;;;3.40;100.00;101646.06;689504;28;885;-61
2023/01/31 00:32:12;;;;;;;14.63;3.33;;;;;;;3.36;100.00;101644.19;688406;28;1475;-62
2023/01/31 00:32:32;;;;;;;16.95;3.60;;;;;;;3.38;100.00;101645.16;691958;28;935;-65
2023/01/31 00:32:53;;;;;;;17.47;4.33;;;;;;;3.33;100.00;101647.53;689961;28;1225;-63
2023/01/31 00:33:13;;;;;;;15.73;3.93;;;;;;;3.32;100.00;101648.34;691672;28;4319;-62
2023/01/31 00:33:34;;;;;;;17.75;3.58;;;;;;;3.30;100.00;101647.41;692423;28;864;-62
2023/01/31 00:33:55;;;;;;;15.50;3.45;;;;;;;3.47;100.00;101644.63;689766;28;915;-64
2023/01/31 00:34:16;;;;;;;16.48;3.63;;;;;;;3.44;100.00;101645.38;688763;28;1224;-62
2023/01/31 00:34:37;;;;;;;19.05;3.70;;;;;;;3.38;100.00;101635.69;690087;28;1189;-62
2023/01/31 00:34:58;;;;;;;17.23;3.70;;;;;;;3.33;100.00;101647.53;689324;28;1175;-63
2023/01/31 00:35:18;;;;;;;16.93;3.90;;;;;;;3.29;100.00;101637.88;689883;28;1440;-63
2023/01/31 00:35:40;;;;;;;15.77;3.53;;;;;;;3.30;100.00;101638.78;687756;28;1118;-62
2023/01/31 00:36:05;;;;;;;16.75;3.60;;;;;;;3.33;100.00;101644.94;689930;28;1186;-62
2023/01/31 00:36:32;;;;;;;19.95;3.80;;;;;;;3.30;100.00;101647.41;691173;28;6337;-63
2023/01/31 00:36:53;;;;;;;16.35;3.75;;;;;;;3.26;100.00;101644.66;691856;28;943;-63
2023/01/31 00:37:13;;;;;;;18.10;3.80;;;;;;;3.23;100.00;101648.00;691085;28;1038;-63
2023/01/31 00:37:34;;;;;;;14.38;3.40;;;;;;;3.33;100.00;101650.13;693994;28;1289;-62
2023/01/31 00:37:54;;;;;;;12.73;3.37;;;;;;;3.38;100.00;101646.03;693528;28;1148;-61
2023/01/31 00:38:14;;;;;;;13.68;3.50;;;;;;;3.34;100.00;101646.72;692304;28;1211;-62
2023/01/31 00:38:35;;;;;;;14.33;3.13;;;;;;;3.30;100.00;101654.28;694944;28;853;-62
2023/01/31 00:38:59;;;;;;;16.02;3.42;;;;;;;3.34;100.00;101644.13;692049;28;1171;-63
2023/01/31 00:39:19;;;;;;;15.48;3.83;;;;;;;3.31;100.00;101645.69;691824;28;4487;-62
2023/01/31 00:39:39;;;;;;;17.77;3.93;;;;;;;3.26;100.00;101648.09;694924;28;1448;-62
2023/01/31 00:40:00;;;;;;;15.52;3.28;;;;;;;3.27;100.00;101648.97;694768;28;1016;-62
2023/01/31 00:40:20;;;;;;;15.90;3.40;;;;;;;3.28;100.00;101648.16;695446;28;1407;-61
2023/01/31 00:40:41;;;;;;;16.43;3.70;;;;;;;3.26;100.00;101647.25;695868;28;935;-63
2023/01/31 00:41:02;;;;;;;15.93;3.40;;;;;;;3.30;100.00;101641.38;697595;28;1022;-61
2023/01/31 00:41:24;;;;;;;13.23;3.38;;;;;;;3.29;100.00;101645.63;696906;28;1235;-61
2023/01/31 00:41:45;;;;;;;15.70;3.80;;;;;;;3.24;100.00;101644.59;695860;28;947;-62
2023/01/31 00:42:08;;;;;;;14.60;3.80;;;;;;;3.22;100.00;101641.03;694446;28;4540;-62
2023/01/31 00:42:28;;;;;;;16.33;3.67;;;;;;;3.23;100.00;101640.22;695418;28;963;-61
2023/01/31 00:42:49;;;;;;;14.63;3.67;;;;;;;3.22;100.00;101639.34;694959;28;1284;-63
2023/01/31 00:43:09;;;;;;;15.00;3.67;;;;;;;3.26;100.00;101640.34;693969;28;1288;-63
2023/01/31 00:43:30;;;;;;;14.45;3.60;;;;;;;3.21;100.00;101641.84;694570;28;1392;-62
2023/01/31 00:43:51;;;;;;;16.15;4.07;;;;;;;3.23;100.00;101646.28;694316;28;967;-63
2023/01/31 00:44:11;;;;;;;17.05;3.85;;;;;;;3.23;100.00;101640.22;696226;28;1455;-63
2023/01/31 00:44:32;;;;;;;15.10;3.25;;;;;;;3.22;100.00;101641.03;695479;28;1077;-61
2023/01/31 00:44:52;;;;;;;16.07;3.47;;;;;;;3.19;100.00;101638.34;690595;28;1369;-62
2023/01/31 00:45:13;;;;;;;17.17;3.80;;;;;;;3.18;100.00;101639.16;690352;28;4543;-64
2023/01/31 00:45:34;;;;;;;16.33;3.53;;;;;;;3.17;100.00;101645.13;690853;28;911;-61
2023/01/31 00:45:54;;;;;;;14.00;3.30;;;;;;;3.30;100.00;101642.25;690555;28;935;-61
2023/01/31 00:46:16;;;;;;;15.52;4.00;;;;;;;3.26;100.00;101640.34;691106;28;2079;-63
2023/01/31 00:46:37;;;;;;;13.60;3.47;;;;;;;3.22;100.00;101638.47;689177;28;2240;-62
2023/01/31 00:46:57;;;;;;;16.88;4.07;;;;;;;3.21;100.00;101641.84;694162;28;976;-62
2023/01/31 00:47:18;;;;;;;14.17;3.60;;;;;;;3.23;100.00;101646.28;693339;28;753;-62
2023/01/31 00:47:38;;;;;;;16.67;3.80;;;;;;;3.22;100.00;101649.66;689419;28;1649;-62
2023/01/31 00:47:58;;;;;;;19.83;4.10;;;;;;;3.20;100.00;101642.69;689740;28;1079;-61
2023/01/31 00:48:19;;;;;;;20.70;4.13;;;;;;;3.23;100.00;101646.28;689419;28;4257;-62
2023/01/31 00:48:39;;;;;;;16.63;4.10;;;;;;;3.21;100.00;101644.44;689268;28;1382;-63
2023/01/31 00:49:00;;;;;;;18.77;4.20;;;;;;;3.21;100.00;101654.78;689568;28;1122;-61
2023/01/31 00:49:21;;;;;;;18.90;3.67;;;;;;;3.20;100.00;101643.56;690496;28;1922;-61
2023/01/31 00:49:41;;;;;;;16.77;3.60;;;;;;;3.31;100.00;101640.53;694655;28;882;-61
2023/01/31 00:50:02;;;;;;;17.53;3.93;;;;;;;3.33;100.00;101641.50;694100;28;997;-62
2023/01/31 00:50:23;;;;;;;17.45;3.72;;;;;;;3.29;100.00;101640.47;693905;28;900;-62
2023/01/31 00:50:43;;;;;;;17.33;4.00;;;;;;;3.27;100.00;101646.38;693162;28;1137;-62
2023/01/31 00:51:05;;;;;;;19.52;3.63;;;;;;;3.23;100.00;101643.69;693121;28;4554;-62
2023/01/31 00:51:25;;;;;;;17.63;3.77;;;;;;;3.22;100.00;101636.75;694156;28;1259;-62
2023/01/31 00:51:46;;;;;;;16.15;3.58;;;;;;;3.30;100.00;101638.78;693663;28;864;-63
2023/01/31 00:52:07;;;;;;;13.80;3.63;;;;;;;3.31;100.00;101644.00;692097;28;1941;-62
2023/01/31 00:52:28;;;;;;;18.00;3.90;;;;;;;3.27;100.00;101636.06;689928;28;927;-62
2023/01/31 00:52:48;;;;;;;20.03;4.07;;;;;;;3.32;100.00;101634.53;689195;28;888;-62
2023/01/31 00:53:10;;;;;;;16.05;3.70;;;;;;;3.24;100.00;101642.00;686797;28;1027;-63
2023/01/31 00:53:30;;;;;;;16.60;3.50;;;;;;;3.21;100.00;101634.09;687197;28;840;-62
2023/01/31 00:53:51;;;;;;;13.40;3.50;;;;;;;3.21;100.00;101632.44;687382;28;872;-62
2023/01/31 00:54:12;;;;;;;14.60;3.63;;;;;;;3.20;100.00;101637.53;685147;28;4494;-63
2023/01/31 00:54:32;;;;;;;19.73;4.53;;;;;;;3.20;100.00;101634.94;687319;28;1294;-61
2023/01/31 00:54:52;;;;;;;17.00;3.60;;;;;;;3.24;100.00;101642.00;686753;28;1397;-61
2023/01/31 00:55:13;;;;;;;16.60;3.50;;;;;;;3.29;100.00;101635.31;685279;28;1142;-60
2023/01/31 00:55:34;;;;;;;17.47;4.50;;;;;;;3.28;100.00;101641.31;686277;28;873;-60
2023/01/31 00:56:01;;;;;;;16.70;3.85;;;;;;;3.26;100.00;101639.47;685223;28;1199;-62
2023/01/31 00:56:23;;;;;;;16.40;4.00;;;;;;;3.20;100.00;101640.13;685314;28;924;-61
2023/01/31 00:56:43;;;;;;;17.33;4.20;;;;;;;3.26;100.00;101630.00;687619;28;1337;-61
2023/01/31 00:57:04;;;;;;;13.77;4.20;;;;;;;3.24;100.00;101636.84;687347;28;1598;-62
2023/01/31 00:57:24;;;;;;;15.65;3.85;;;;;;;3.21;100.00;101639.28;685146;28;4522;-62
2023/01/31 00:57:45;;;;;;;15.07;3.97;;;;;;;3.20;100.00;101633.22;688041;28;1200;-61
2023/01/31 00:58:05;;;;;;;15.80;3.90;;;;;;;3.17;100.00;101632.22;685325;28;1245;-61
2023/01/31 00:58:25;;;;;;;17.57;3.90;;;;;;;3.14;100.00;101635.56;684159;28;1157;-62
2023/01/31 00:58:49;;;;;;;18.52;3.55;;;;;;;3.16;100.00;101636.50;684659;28;1401;-62
2023/01/31 00:59:10;;;;;;;17.77;3.65;;;;;;;3.24;100.00;101634.25;687960;28;1406;-62
2023/01/31 00:59:31;;;;;;;15.55;3.63;;;;;;;3.30;100.00;101634.50;686892;28;1516;-61
2023/01/31 00:59:51;;;;;;;18.50;3.80;;;;;;;3.27;100.00;101631.78;686759;28;1040;-62
2023/01/31 01:00:12;;;;;;;15.90;3.53;;;;;;;3.26;100.00;101642.94;685812;28;4477;-61
2023/01/31 01:00:32;;;;;;;17.38;4.05;;;;;;;3.39;100.00;101629.69;685619;28;1570;-61
2023/01/31 01:00:53;;;;;;;16.58;4.10;;;;;;;3.35;100.00;101634.66;682182;28;828;-62
2023/01/31 01:01:20;;;;;;;14.77;3.60;;;;;;;3.30;100.00;101636.19;684551;28;1229;-61
2023/01/31 01:01:41;;;;;;;18.08;3.80;;;;;;;3.24;100.00;101636.84;684099;28;1280;-62
2023/01/31 01:02:01;;;;;;;17.27;3.67;;;;;;;3.23;100.00;101637.66;685530;28;1122;-61
2023/01/31 01:02:22;;;;;;;14.57;4.03;;;;;;;3.22;100.00;101638.47;685713;28;880;-63
2023/01/31 01:02:44;;;;;;;15.68;3.95;;;;;;;3.19;100.00;101639.22;684317;28;1383;-64
2023/01/31 01:03:05;;;;;;;17.33;4.18;;;;;;;3.16;100.00;101639.09;683976;28;4542;-62
2023/01/31 01:03:25;;;;;;;20.33;4.13;;;;;;;3.21;100.00;101637.59;684748;28;1416;-62
2023/01/31 01:03:45;;;;;;;20.80;4.50;;;;;;;3.20;100.00;101638.41;684417;28;857;-62
2023/01/31 01:04:06;;;;;;;20.63;4.20;;;;;;;3.26;100.00;101634.31;681444;28;875;-61
2023/01/31 01:04:27;;;;;;;20.35;4.10;;;;;;;3.24;100.00;101634.25;682143;28;1142;-62
2023/01/31 01:04:47;;;;;;;20.50;4.40;;;;;;;3.29;100.00;101635.31;687097;28;1225;-62
2023/01/31 01:05:08;;;;;;;20.00;4.20;;;;;;;3.25;100.00;101638.56;688698;28;1310;-61
2023/01/31 01:05:28;;;;;;;17.00;3.97;;;;;;;3.22;100.00;101638.47;689271;28;844;-62
2023/01/31 01:05:49;;;;;;;14.20;3.75;;;;;;;3.25;100.00;101641.16;690056;28;952;-61
2023/01/31 01:06:10;;;;;;;14.00;3.97;;;;;;;3.30;100.00;101637.06;686631;28;4646;-62
2023/01/31 01:06:30;;;;;;;14.57;3.70;;;;;;;3.36;100.00;101642.47;690872;28;944;-62
2023/01/31 01:06:51;;;;;;;17.73;3.53;;;;;;;3.42;100.00;101628.94;689780;28;988;-63
2023/01/31 01:07:11;;;;;;;17.25;3.67;;;;;;;3.37;100.00;101639.06;690886;28;1024;-61
2023/01/31 01:07:32;;;;;;;15.50;3.93;;;;;;;3.33;100.00;101634.59;689990;28;1175;-62
2023/01/31 01:07:53;;;;;;;18.00;4.13;;;;;;;3.35;100.00;101639.84;687881;28;1377;-62
2023/01/31 01:08:14;;;;;;;14.93;3.67;;;;;;;3.32;100.00;101648.34;692036;28;1204;-62
2023/01/31 01:08:35;;;;;;;15.38;3.85;;;;;;;3.29;100.00;101642.19;692046;28;1050;-62
2023/01/31 01:08:58;;;;;;;16.88;3.97;;;;;;;3.24;100.00;101636.84;688991;28;996;-62
2023/01/31 01:09:19;;;;;;;14.45;3.60;;;;;;;3.31;100.00;101641.44;686968;28;4397;-62
2023/01/31 01:09:41;;;;;;;18.52;3.63;;;;;;;3.32;100.00;101635.41;685207;28;1339;-62
2023/01/31 01:10:02;;;;;;;15.60;3.93;;;;;;;3.31;100.00;101633.69;684269;28;1149;-63
2023/01/31 01:10:23;;;;;;;16.33;4.18;;;;;;;3.30;100.00;101637.06;679066;29;1252;-64
2023/01/31 01:10:43;;;;;;;22.27;4.40;;;;;;;3.31;100.00;101641.44;684078;28;1652;-60
2023/01/31 01:11:09;;;;;;;19.40;3.70;;;;;;;3.33;100.00;101644.94;687086;28;1079;-62
2023/01/31 01:11:31;;;;;;;17.77;3.88;;;;;;;3.26;100.00;101637.75;690638;28;963;-61
2023/01/31 01:11:51;;;;;;;15.68;3.90;;;;;;;3.36;100.00;101639.03;690775;28;1305;-61
2023/01/31 01:12:12;;;;;;;18.87;3.80;;;;;;;3.32;100.00;101645.75;692373;28;4470;-61
2023/01/31 01:12:32;;;;;;;18.17;3.60;;;;;;;3.27;100.00;101642.13;694369;28;837;-62
2023/01/31 01:12:53;;;;;;;16.13;3.53;;;;;;;3.40;100.00;101638.31;695366;28;817;-61
2023/01/31 01:13:13;;;;;;;16.93;3.27;;;;;;;3.45;100.00;101638.50;694708;28;1474;-62
2023/01/31 01:13:35;;;;;;;17.27;3.70;;;;;;;3.45;100.00;101643.66;692732;28;1326;-61
2023/01/31 01:13:57;;;;;;;16.77;3.80;;;;;;;3.40;100.00;101639.19;691899;28;1411;-63
2023/01/31 01:14:18;;;;;;;15.38;3.65;;;;;;;3.31;100.00;101638.84;691638;28;3792;-61
2023/01/31 01:14:38;;;;;;;17.23;3.78;;;;;;;3.27;100.00;101641.22;691322;28;908;-61
2023/01/31 01:14:58;;;;;;;17.97;4.10;;;;;;;3.27;100.00;101641.22;690363;28;1041;-62
2023/01/31 01:15:19;;;;;;;17.80;3.75;;;;;;;3.24;100.00;101636.84;690783;28;4551;-64
2023/01/31 01:15:39;;;;;;;16.95;3.95;;;;;;;3.22;100.00;101641.03;694204;28;1526;-61
2023/01/31 01:16:12;;;;;;;18.63;4.07;;;;;;;3.32;100.00;101640.59;691838;28;1144;-61
2023/01/31 01:16:37;;;;;;;16.83;3.72;;;;;;;3.32;100.00;101632.84;691120;28;955;-61
2023/01/31 01:16:58;;;;;;;15.25;3.53;;;;;;;3.29;100.00;101644.78;687609;28;1415;-62
2023/01/31 01:17:19;;;;;;;15.98;3.20;;;;;;;3.24;100.00;101640.28;691345;28;1416;-63
2023/01/31 01:17:39;;;;;;;18.47;3.90;;;;;;;3.26;100.00;101640.34;691931;28;939;-62
2023/01/31 01:17:59;;;;;;;18.70;3.77;;;;;;;3.19;100.00;101643.50;690751;28;1209;-61
2023/01/31 01:18:20;;;;;;;17.37;3.37;;;;;;;3.17;100.00;101650.31;691355;28;4479;-61
2023/01/31 01:18:41;;;;;;;15.75;3.33;;;;;;;3.21;100.00;101647.94;691874;28;815;-62
2023/01/31 01:19:03;;;;;;;16.85;4.15;;;;;;;3.29;100.00;101640.47;693698;28;909;-63
2023/01/31 01:19:25;;;;;;;16.00;4.35;;;;;;;3.35;100.00;101645.00;693792;28;821;-62
2023/01/31 01:19:45;;;;;;;16.53;4.60;;;;;;;3.31;100.00;101649.19;691123;28;885;-61
2023/01/31 01:20:07;;;;;;;18.42;4.43;;;;;;;3.28;100.00;101648.16;690870;28;1185;-62
2023/01/31 01:20:27;;;;;;;14.27;3.40;;;;;;;3.32;100.00;101647.47;690794;28;908;-62
2023/01/31 01:20:48;;;;;;;16.63;3.53;;;;;;;3.28;100.00;101649.06;690609;28;1019;-61
2023/01/31 01:21:13;;;;;;;22.10;3.80;;;;;;;3.24;100.00;101647.19;689431;28;4339;-62
2023/01/31 01:21:39;;;;;;;16.20;3.75;;;;;;;3.19;100.00;101639.22;689759;28;956;-62
2023/01/31 01:22:01;;;;;;;13.00;3.67;;;;;;;3.21;100.00;101647.03;692163;28;1291;-62
2023/01/31 01:22:21;;;;;;;15.87;3.50;;;;;;;3.28;100.00;101641.31;687810;28;825;-62
2023/01/31 01:22:41;;;;;;;20.60;3.72;;;;;;;3.27;100.00;101646.38;688632;28;1015;-63
2023/01/31 01:23:02;;;;;;;17.50;3.77;;;;;;;3.25;100.00;101646.34;691231;28;1036;-62
2023/01/31 01:23:22;;;;;;;15.68;3.80;;;;;;;3.22;100.00;101638.47;691268;28;959;-61
2023/01/31 01:23:43;;;;;;;15.80;3.77;;;;;;;3.30;100.00;101637.06;688429;28;1153;-61
2023/01/31 01:24:06;;;;;;;16.05;3.90;;;;;;;3.32;100.00;101640.59;691318;28;1130;-61
2023/01/31 01:24:27;;;;;;;18.63;3.97;;;;;;;3.27;100.00;101636.97;690667;28;4663;-63
2023/01/31 01:24:48;;;;;;;18.77;3.83;;;;;;;3.28;100.00;101640.41;690438;28;851;-62
2023/01/31 01:25:09;;;;;;;16.77;3.90;;;;;;;3.30;100.00;101643.97;690911;28;1072;-62
2023/01/31 01:25:30;;;;;;;14.73;3.65;;;;;;;3.27;100.00;101642.13;688389;28;1339;-62
2023/01/31 01:25:53;;;;;;;16.60;3.95;;;;;;;3.29;100.00;101634.44;692137;28;1239;-62
2023/01/31 01:26:21;;;;;;;17.88;3.45;;;;;;;3.29;100.00;101637.88;691753;28;894;-61
2023/01/31 01:26:43;;;;;;;16.33;3.58;;;;;;;3.24;100.00;101642.88;692328;28;1427;-62
2023/01/31 01:27:03;;;;;;;17.77;3.92;;;;;;;3.21;100.00;101636.69;692213;28;909;-62
2023/01/31 01:27:26;;;;;;;15.43;3.65;;;;;;;3.23;100.00;101641.09;687793;28;6156;-64
2023/01/31 01:27:46;;;;;;;16.50;3.60;;;;;;;3.19;100.00;101641.78;689542;28;1482;-62
2023/01/31 01:28:06;;;;;;;15.73;3.40;;;;;;;3.15;100.00;101639.91;690777;28;1094;-61
2023/01/31 01:28:33;;;;;;;14.52;3.38;;;;;;;3.13;100.00;101640.66;688289;28;1716;-61
2023/01/31 01:28:55;;;;;;;15.23;3.80;;;;;;;3.10;100.00;101641.41;690141;28;840;-62
2023/01/31 01:29:16;;;;;;;15.40;4.10;;;;;;;3.09;100.00;101638.75;688747;28;5327;-62
2023/01/31 01:29:39;;;;;;;17.70;3.72;;;;;;;3.14;100.00;101639.84;691255;28;836;-62
2023/01/31 01:30:00;;;;;;;18.20;3.95;;;;;;;3.13;100.00;101649.31;689243;28;1865;-64
2023/01/31 01:30:21;;;;;;;14.73;3.70;;;;;;;3.12;100.00;101644.09;690333;28;4946;-62
2023/01/31 01:30:42;;;;;;;14.57;3.80;;;;;;;3.13;100.00;101646.72;689559;28;1776;-62
2023/01/31 01:31:06;;;;;;;13.88;4.18;;;;;;;3.22;100.00;101646.22;686964;28;1591;-64
2023/01/31 01:31:30;;;;;;;16.05;3.50;;;;;;;3.20;100.00;101651.31;685150;28;790;-62
2023/01/31 01:31:51;;;;;;;17.77;3.80;;;;;;;3.17;100.00;101646.03;684255;28;2356;-61
2023/01/31 01:32:11;;;;;;;17.23;3.77;;;;;;;3.17;100.00;101645.13;685927;28;1180;-63
2023/01/31 01:32:32;;;;;;;18.30;3.65;;;;;;;3.21;100.00;101647.03;686812;28;774;-62
2023/01/31 01:32:54;;;;;;;14.97;3.30;;;;;;;3.16;100.00;101649.44;690528;28;957;-63
2023/01/31 01:33:14;;;;;;;15.23;3.38;;;;;;;3.17;100.00;101646.03;690335;28;4314;-62
2023/01/31 01:33:35;;;;;;;17.57;3.60;;;;;;;3.23;100.00;101646.28;690058;28;1123;-64
2023/01/31 01:34:04;;;;;;;19.55;3.97;;;;;;;3.31;100.00;101648.28;691318;28;1263;-61
2023/01/31 01:34:25;;;;;;;16.70;3.50;;;;;;;3.33;100.00;101651.81;691007;28;989;-62
2023/01/31 01:34:46;;;;;;;15.70;3.50;;;;;;;3.30;100.00;101647.41;688463;28;1138;-62
2023/01/31 01:35:08;;;;;;;14.13;3.70;;;;;;;3.35;100.00;101647.59;687072;28;921;-63
2023/01/31 01:35:30;;;;;;;17.05;3.67;;;;;;;3.32;100.00;101650.94;688601;28;1046;-62
2023/01/31 01:35:50;;;;;;;15.32;3.50;;;;;;;3.29;100.00;101645.63;690814;28;940;-61
2023/01/31 01:36:16;;;;;;;13.75;3.03;;;;;;;3.28;100.00;101650.75;691489;28;4521;-62
2023/01/31 01:36:36;;;;;;;16.38;3.20;;;;;;;3.31;100.00;101649.19;693285;28;1042;-62
2023/01/31 01:36:57;;;;;;;16.23;3.30;;;;;;;3.33;100.00;101647.53;693206;28;1373;-61
2023/01/31 01:37:20;;;;;;;13.73;3.30;;;;;;;3.35;100.00;101648.50;693298;28;812;-63
2023/01/31 01:37:40;;;;;;;13.68;3.30;;;;;;;3.29;100.00;101645.63;692471;28;1443;-62
2023/01/31 01:38:00;;;;;;;13.93;3.37;;;;;;;3.25;100.00;101654.09;691693;28;1448;-62
2023/01/31 01:38:22;;;;;;;15.50;3.35;;;;;;;3.31;100.00;101646.59;689700;28;836;-62
2023/01/31 01:38:44;;;;;;;17.38;3.33;;;;;;;3.30;100.00;101650.00;689505;28;817;-61
2023/01/31 01:39:08;;;;;;;19.10;3.70;;;;;;;3.27;100.00;101647.28;688863;28;4556;-63
2023/01/31 01:39:29;;;;;;;16.90;3.42;;;;;;;3.35;100.00;101645.00;689363;28;1035;-62
2023/01/31 01:39:51;;;;;;;14.00;3.38;;;;;;;3.49;100.00;101648.13;690224;28;932;-61
2023/01/31 01:40:11;;;;;;;16.42;3.78;;;;;;;3.47;100.00;101648.09;691947;28;2032;-61
2023/01/31 01:40:36;;;;;;;16.10;4.20;;;;;;;3.39;100.00;101641.72;692999;28;887;-62
2023/01/31 01:40:56;;;;;;;13.32;3.47;;;;;;;3.38;100.00;101646.03;693847;28;2102;-61